Flight Track Log - Related Links

Times and Time Zones

All times are in EDT time to prevent confusion due to time zone crossing. See the SWA3584 flight status page for this flight to view local times or setup timezone preferences in your user account.

Time Position Orientation Groundspeed Altitude Reporting Facility
EDT Latitude Longitude Course Direction KTS MPH feet Rate Location/Type
Sat 07:44:29 AM 41.8000 -87.7833 54° Northeast 164 189 2,000  Level Chicago TRACON
Sat 07:45:28 AM 41.8303 -87.7278 54° Northeast 217 250 3,300 1,613 Climbing Chicago Center
Sat 07:46:28 AM 41.8328 -87.6444 88° East 220 253 5,200 1,934 Climbing Chicago Center
Sat 07:47:29 AM 41.8344 -87.5589 88° East 226 260 7,200 2,361 Climbing Chicago Center
Sat 07:48:30 AM 41.8258 -87.4556 96° East 266 306 10,000 3,148 Climbing Chicago Center
Sat 07:49:31 AM 41.8061 -87.3439 103° East 299 344 13,600 3,246 Climbing Chicago Center
Sat 07:50:32 AM 41.7875 -87.2156 101° East 337 388 16,600 3,344 Climbing Chicago Center
Sat 07:51:33 AM 41.7614 -87.0508 102° East 371 427 20,400 3,344 Climbing Chicago Center
Sat 07:52:34 AM 41.7628 -86.9028 89° East 395 455 23,400 2,607 Climbing Chicago Center
Sat 07:53:35 AM 41.7561 -86.7461 93° East 417 480 25,700 2,213 Climbing Chicago Center
Sat 07:54:36 AM 41.7486 -86.5750 93° East 446 513 27,900 2,083 Climbing Chicago Center
Sat 07:55:36 AM 41.7425 -86.4014 93° East 465 535 29,900 2,182 Climbing Chicago Center
Sat 07:56:37 AM 41.7353 -86.2236 93° East 477 549 32,300 1,525 Climbing Chicago Center
Sat 07:57:38 AM 41.7272 -86.0467 93° East 477 549 33,000 344 Climbing Chicago Center
Sat 07:58:39 AM 41.7197 -85.8706 93° East 474 545 33,000 1,033 Level Chicago Center
Sat 07:59:40 AM 41.7125 -85.6942 93° East 475 547 35,100 1,918 Climbing Chicago Center
Sat 08:00:41 AM 41.7044 -85.5258 94° East 476 548 36,900 1,918 Climbing Chicago Center
Sat 08:01:42 AM 41.6950 -85.3586 94° East 469 540 39,000 1,820 Climbing Chicago Center
Sat 08:02:43 AM 41.6881 -85.1600 93° East 468 539 40,600 984 Climbing Chicago Center
Sat 08:03:44 AM 41.6783 -84.9914 94° East 459 528 41,000 197 Climbing Chicago Center
Sat 08:04:45 AM 41.6689 -84.8222 94° East 456 525 41,000  Level Chicago Center
Sat 08:05:45 AM 41.6603 -84.6519 94° East 459 528 41,000  Level Chicago Center
Sat 08:06:39 AM 41.6264 -84.5161 108° East 486 559 41,000  Level Cleveland Center
Sat 08:07:41 AM 41.5547 -84.3247 117° Southeast 481 554 41,000  Level Cleveland Center
Sat 08:08:42 AM 41.5025 -84.1861 117° Southeast 483 556 41,000  Level Cleveland Center
Sat 08:09:43 AM 41.4433 -84.0275 116° Southeast 482 555 41,000  Level Cleveland Center
Sat 08:10:44 AM 41.3728 -83.8381 116° Southeast 481 554 41,000  Level Cleveland Center
Sat 08:11:46 AM 41.3139 -83.6822 117° Southeast 475 547 41,000  Level Cleveland Center
Sat 08:12:47 AM 41.2539 -83.5261 117° Southeast 477 549 41,000  Level Cleveland Center
Sat 08:13:49 AM 41.1947 -83.3664 116° Southeast 482 555 41,000  Level Cleveland Center
Sat 08:14:01 AM 41.1825 -83.3353 118° Southeast 482 555 41,000  Level Cleveland Center
Sat 08:15:02 AM 41.1183 -83.1667 117° Southeast 476 548 41,000  Level Cleveland Center
Sat 08:16:04 AM 41.0581 -83.0089 117° Southeast 477 549 41,000  Level Cleveland Center
Sat 08:17:05 AM 40.9983 -82.8522 117° Southeast 475 547 41,000  Level Cleveland Center
Sat 08:18:06 AM 40.9383 -82.6967 117° Southeast 474 545 41,000  Level Cleveland Center
Sat 08:19:08 AM 40.8778 -82.5417 117° Southeast 472 543 41,000  Level Cleveland Center
Sat 08:20:09 AM 40.8161 -82.3853 117° Southeast 478 550 41,000  Level Cleveland Center
Sat 08:21:10 AM 40.7556 -82.2283 117° Southeast 477 549 41,000  Level Cleveland Center
Sat 08:22:12 AM 40.6928 -82.0719 118° Southeast 481 554 41,000  Level Cleveland Center
Sat 08:23:13 AM 40.6306 -81.9156 118° Southeast 480 552 41,000  Level Cleveland Center
Sat 08:23:50 AM 40.5889 -81.8125 118° Southeast 481 554 41,000  Level Indianapolis Center
Sat 08:24:51 AM 40.5258 -81.6564 118° Southeast 482 555 41,000  Level Indianapolis Center
Sat 08:25:52 AM 40.4642 -81.5017 118° Southeast 478 550 41,000  Level Indianapolis Center
Sat 08:26:54 AM 40.4014 -81.3464 118° Southeast 480 552 41,000  Level Indianapolis Center
Sat 08:27:55 AM 40.3375 -81.1914 118° Southeast 480 552 41,000  Level Indianapolis Center
Sat 08:28:56 AM 40.2636 -81.0114 118° Southeast 480 552 41,000  Level Indianapolis Center
Sat 08:29:57 AM 40.1997 -80.8569 118° Southeast 479 551 41,000  Level Indianapolis Center
Sat 08:30:58 AM 40.1367 -80.7011 118° Southeast 482 555 41,000  Level Indianapolis Center
Sat 08:31:59 AM 40.0714 -80.5461 119° Southeast 483 556 41,000 -293 Level Indianapolis Center
Sat 08:33:01 AM 40.0044 -80.3844 118° Southeast 488 562 40,400 -780 Descending Indianapolis Center
Sat 08:34:02 AM 39.9397 -80.2314 119° Southeast 483 556 39,400 -934 Descending Indianapolis Center
Sat 08:35:03 AM 39.8742 -80.0756 119° Southeast 488 562 38,500 -934 Descending Indianapolis Center
Sat 08:36:04 AM 39.8319 -79.9117 108° East 480 552 37,500 -1,131 Descending Indianapolis Center
Sat 08:37:05 AM 39.7983 -79.7447 105° East 478 550 36,200 -2,293 Descending Indianapolis Center
Sat 08:38:07 AM 39.7636 -79.5775 105° East 478 550 32,800 -3,073 Descending Indianapolis Center
Sat 08:39:08 AM 39.7283 -79.4122 105° East 475 547 29,900 -2,558 Descending Indianapolis Center
Sat 08:40:16 AM 39.6961 -79.2403 104° East 470 541 27,300 -2,250 Descending Washington Center
Sat 08:41:16 AM 39.6650 -79.0906 105° East 448 516 25,100 -1,438 Descending Washington Center
Sat 08:42:17 AM 39.6336 -78.9461 106° East 426 490 24,400 -836 Descending Washington Center
Sat 08:43:18 AM 39.5942 -78.7936 109° East 426 490 23,400 -1,008 Descending Washington Center
Sat 08:44:16 AM 39.5625 -78.6414 105° East 426 490 22,400 -1,119 Descending Washington Center
Sat 08:45:16 AM 39.5286 -78.4947 107° East 426 490 21,200 -1,736 Descending Washington Center
Sat 08:46:17 AM 39.4986 -78.3536 105° East 426 490 18,900 -2,361 Descending Washington Center
Sat 08:47:18 AM 39.4683 -78.2153 106° East 411 473 16,400 -2,118 Descending Washington Center
Sat 08:48:16 AM 39.4483 -78.0775 101° East 401 461 14,700 -1,373 Descending Washington Center
Sat 08:49:16 AM 39.4489 -77.9458 90° East 388 447 13,700 -1,041 Descending Washington Center
Sat 08:50:17 AM 39.4472 -77.8142 91° East 371 427 12,600 -1,033 Descending Washington Center
Sat 08:51:18 AM 39.4475 -77.6850 90° East 366 421 11,600 -793 Descending Washington Center
Sat 08:52:18 AM 39.4453 -77.5642 91° East 349 402 11,000 -250 Descending Washington Center
Sat 08:53:18 AM 39.4472 -77.4567 89° East 324 373 11,100 55 Climbing Washington Center
Sat 08:54:08 AM 39.4500 -77.3500 88° East 292 336 11,100 -55 Level Potomac TRACON
Sat 08:55:08 AM 39.4667 -77.2500 78° East 289 333 11,000 -500 Descending Potomac TRACON
Sat 08:56:08 AM 39.4667 -77.1500 90° East 292 336 10,100 -947 Descending Potomac TRACON
Sat 08:57:02 AM 39.4500 -77.0500 102° East 285 328 9,200 -1,000 Descending Potomac TRACON
Sat 08:58:02 AM 39.4500 -76.9500 90° East 284 327 8,200 -1,000 Descending Potomac TRACON
Sat 08:59:02 AM 39.4500 -76.8500 90° East 278 320 7,200 -947 Descending Potomac TRACON
Sat 08:59:56 AM 39.4500 -76.7667 90° East 272 313 6,400 -947 Descending Potomac TRACON
Sat 09:00:56 AM 39.4500 -76.6667 90° East 263 303 5,400 -800 Descending Potomac TRACON
Sat 09:01:56 AM 39.4167 -76.6000 123° Southeast 275 316 4,800 -714 Descending Potomac TRACON
Sat 09:03:02 AM 39.3333 -76.5667 163° South 278 320 3,900 -900 Descending Potomac TRACON
Sat 09:03:56 AM 39.2667 -76.5333 159° South 272 313 3,000 -678 Descending Potomac TRACON
Sat 09:04:57 AM 39.2000 -76.5167 169° South 259 298 2,600 -524 Descending Potomac TRACON
Sat 09:06:02 AM 39.1500 -76.5667 218° Southwest 199 229 1,900 -600 Descending Potomac TRACON
Sat 09:06:57 AM 39.1333 -76.6167 247° West 157 181 1,400 -678 Descending Potomac TRACON
Sat 09:07:57 AM 39.1500 -76.6500 303° West 127 146 600 -800 Descending Potomac TRACON
Sat 09:09:00 AM 39.1667 -76.6667 282° West  Level FlightAware Approximate
Sat 09:16:00 AM 39.1754 -76.6683 282° West  Level Estimated

Login

Don't have an account? Register now (free) for customized features, flight alerts, and more!